Time,TemperatureF,DewpointF,PressureIn,WindDirection,WindDirectionDegrees,WindSpeedMPH,WindSpeedGustMPH,Humidity,HourlyPrecipIn,Conditions,Clouds,dailyrainin,SoftwareType,DateUTC
2013-06-23 00:00:00,-1.2,-12.1,29.51,NNE,28,22.0,24.0,59,0.00,CLR,,0.00,WeatherDisplay:10.37,2013-06-22 12:00:00,
2013-06-23 00:15:00,-0.7,-11.6,29.52,NNE,32,20.0,22.0,59,0.00,CLR,,0.00,WeatherDisplay:10.37,2013-06-22 12:15:00,
2013-06-23 00:30:00,0.0,-11.0,29.52,NNE,31,20.0,20.0,59,0.00,CLR,,0.00,WeatherDisplay:10.37,2013-06-22 12:30:00,
2013-06-23 00:45:00,0.5,-11.6,29.52,NNE,26,20.0,20.0,56,0.00,CLR,,0.00,WeatherDisplay:10.37,2013-06-22 12:45:00,
2013-06-23 01:00:00,0.9,-11.5,29.51,NNE,24,18.0,20.0,55,0.00,CLR,,0.00,WeatherDisplay:10.37,2013-06-22 13:00:00,
2013-06-23 01:15:00,2.0,-11.3,29.51,NNE,26,17.0,18.0,53,0.00,CLR,,0.00,WeatherDisplay:10.37,2013-06-22 13:15:00,
2013-06-23 01:30:00,2.2,-11.4,29.50,NNE,26,16.0,17.0,52,0.00,CLR,,0.00,WeatherDisplay:10.37,2013-06-22 13:30:00,
2013-06-23 01:45:00,3.2,-11.3,29.50,NNE,26,16.0,16.0,50,0.00,CLR,,0.00,WeatherDisplay:10.37,2013-06-22 13:45:00,
2013-06-23 02:00:00,5.8,-11.0,29.51,NNE,24,16.0,16.0,45,0.00,CLR,,0.00,WeatherDisplay:10.37,2013-06-22 14:00:00,
2013-06-23 02:15:00,6.5,-10.8,29.49,NNE,28,16.0,16.0,44,0.00,CLR,,0.00,WeatherDisplay:10.37,2013-06-22 14:15:00,
2013-06-23 02:30:00,7.0,-11.3,29.50,NNE,30,17.0,17.0,42,0.00,CLR,,0.00,WeatherDisplay:10.37,2013-06-22 14:30:00,
2013-06-23 02:45:00,8.9,-11.0,29.50,NNE,33,13.0,17.0,39,0.00,CLR,,0.00,WeatherDisplay:10.37,2013-06-22 14:45:00,
2013-06-23 03:00:00,9.0,-12.6,29.49,NE,37,13.0,13.0,36,0.00,CLR,,0.00,WeatherDisplay:10.37,2013-06-22 15:00:00,
2013-06-23 03:15:00,6.9,-11.9,29.49,NE,52,22.0,22.0,41,0.00,CLR,,0.00,WeatherDisplay:10.37,2013-06-22 15:15:00,
2013-06-23 03:30:00,7.1,-12.2,29.49,NE,44,18.0,22.0,40,0.00,CLR,,0.00,WeatherDisplay:10.37,2013-06-22 15:30:00,
2013-06-23 03:45:00,7.0,-12.3,29.50,NE,52,18.0,18.0,40,0.00,CLR,,0.00,WeatherDisplay:10.37,2013-06-22 15:45:00,
2013-06-23 04:00:00,6.2,-12.5,29.50,ENE,57,17.0,18.0,41,0.00,CLR,,0.00,WeatherDisplay:10.37,2013-06-22 16:00:00,
2013-06-23 04:15:00,7.1,-12.2,29.48,ENE,67,17.0,17.0,40,0.00,CLR,,0.00,WeatherDisplay:10.37,2013-06-22 16:15:00,
2013-06-23 04:30:00,5.9,-11.9,29.48,NE,43,18.0,18.0,43,0.00,CLR,,0.00,WeatherDisplay:10.37,2013-06-22 16:30:00,
2013-06-23 04:45:00,6.4,-12.3,29.47,NNE,33,23.0,23.0,41,0.00,CLR,,0.00,WeatherDisplay:10.37,2013-06-22 16:45:00,
2013-06-23 05:00:00,5.9,-12.3,29.48,NNE,30,22.0,23.0,42,0.00,CLR,,0.00,WeatherDisplay:10.37,2013-06-22 17:00:00,
2013-06-23 05:15:00,5.1,-12.5,29.49,NNE,26,21.0,22.0,43,0.00,CLR,,0.00,WeatherDisplay:10.37,2013-06-22 17:15:00,
2013-06-23 05:30:00,6.9,-13.4,29.48,NNE,30,18.0,21.0,38,0.00,CLR,,0.00,WeatherDisplay:10.37,2013-06-22 17:30:00,
2013-06-23 05:45:00,5.2,-11.6,29.49,NNE,32,16.0,18.0,45,0.00,CLR,,0.00,WeatherDisplay:10.37,2013-06-22 17:45:00,
2013-06-23 06:00:00,4.4,-11.9,29.49,NNE,33,17.0,17.0,46,0.00,CLR,,0.00,WeatherDisplay:10.37,2013-06-22 18:00:00,
2013-06-23 06:15:00,4.6,-12.6,29.49,NNE,31,18.0,18.0,44,0.00,CLR,,0.00,WeatherDisplay:10.37,2013-06-22 18:15:00,
2013-06-23 06:30:00,4.8,-12.4,29.48,NNE,29,20.0,20.0,44,0.00,CLR,,0.00,WeatherDisplay:10.37,2013-06-22 18:30:00,
2013-06-23 06:45:00,4.5,-11.8,29.47,NNE,17,20.0,20.0,46,0.00,CLR,,0.00,WeatherDisplay:10.37,2013-06-22 18:45:00,
2013-06-23 07:00:00,4.6,-11.7,29.46,NNE,16,22.0,22.0,46,0.00,CLR,,0.00,WeatherDisplay:10.37,2013-06-22 19:00:00,
2013-06-23 07:15:00,3.1,-9.1,29.46,NNE,20,25.0,25.0,56,0.00,,,0.00,WeatherDisplay:10.37,2013-06-22 19:15:00,
2013-06-23 07:30:00,3.4,-9.5,29.46,NNE,27,26.0,26.0,54,0.00,,,0.00,WeatherDisplay:10.37,2013-06-22 19:30:00,
2013-06-23 07:45:00,3.6,-10.1,29.45,NNE,22,31.0,31.0,52,0.00,,,0.00,WeatherDisplay:10.37,2013-06-22 19:45:00,
2013-06-23 08:00:00,3.1,-10.2,29.45,NNE,31,25.0,31.0,53,0.00,,,0.00,WeatherDisplay:10.37,2013-06-22 20:00:00,
2013-06-23 08:15:00,3.1,-11.4,29.45,NNE,27,24.0,25.0,50,0.00,,,0.00,WeatherDisplay:10.37,2013-06-22 20:15:00,
2013-06-23 08:30:00,2.8,-12.5,29.46,NNE,31,21.0,24.0,48,0.00,CLR,,0.00,WeatherDisplay:10.37,2013-06-22 20:30:00,
2013-06-23 08:45:00,1.7,-13.1,29.46,NE,38,21.0,21.0,49,0.00,CLR,,0.00,WeatherDisplay:10.37,2013-06-22 20:45:00,
2013-06-23 09:00:00,1.4,-13.3,29.46,NE,39,22.0,22.0,49,0.00,CLR,,0.00,WeatherDisplay:10.37,2013-06-22 21:00:00,
2013-06-23 09:15:00,0.0,-13.1,29.47,NE,35,22.0,22.0,53,0.00,CLR,,0.00,WeatherDisplay:10.37,2013-06-22 21:15:00,
2013-06-23 09:30:00,-0.8,-13.1,29.46,NE,40,21.0,22.0,55,0.00,CLR,,0.00,WeatherDisplay:10.37,2013-06-22 21:30:00,
2013-06-23 09:45:00,-2.8,-14.3,29.46,NE,35,17.0,21.0,57,0.00,CLR,,0.00,WeatherDisplay:10.37,2013-06-22 21:45:00,
2013-06-23 10:00:00,-2.5,-14.4,29.46,NE,37,21.0,21.0,56,0.00,CLR,,0.00,WeatherDisplay:10.37,2013-06-22 22:00:00,
2013-06-23 10:15:00,-3.1,-14.9,29.45,NE,37,22.0,22.0,56,0.00,CLR,,0.00,WeatherDisplay:10.37,2013-06-22 22:15:00,
2013-06-23 10:30:00,-3.0,-14.8,29.45,NE,36,23.0,23.0,56,0.00,,,0.00,WeatherDisplay:10.37,2013-06-22 22:30:00,
2013-06-23 10:45:00,-2.9,-15.1,29.45,NE,35,21.0,23.0,55,0.00,CLR,,0.00,WeatherDisplay:10.37,2013-06-22 22:45:00,
2013-06-23 11:00:00,-3.5,-15.0,29.45,NE,34,21.0,21.0,57,0.00,CLR,,0.00,WeatherDisplay:10.37,2013-06-22 23:00:00,
2013-06-23 11:15:00,-3.6,-15.4,29.45,NE,37,18.0,21.0,56,0.00,CLR,,0.00,WeatherDisplay:10.37,2013-06-22 23:15:00,
2013-06-23 11:30:00,-3.6,-15.0,29.44,NE,35,16.0,18.0,57,0.00,CLR,,0.00,WeatherDisplay:10.37,2013-06-22 23:30:00,
2013-06-23 11:45:00,-2.9,-14.7,29.45,NNE,32,17.0,17.0,56,0.00,CLR,,0.00,WeatherDisplay:10.37,2013-06-22 23:45:00,
2013-06-23 12:00:00,-3.4,-14.9,29.44,NE,39,17.0,17.0,57,0.00,CLR,,0.00,WeatherDisplay:10.37,2013-06-23 00:00:00,
2013-06-23 12:15:00,-3.6,-14.7,29.43,NNE,33,21.0,21.0,58,0.00,CLR,,0.00,WeatherDisplay:10.37,2013-06-23 00:15:00,
2013-06-23 12:30:00,-4.3,-15.0,29.43,NNE,33,21.0,21.0,59,0.00,CLR,,0.00,WeatherDisplay:10.37,2013-06-23 00:30:00,
2013-06-23 12:45:00,-3.9,-15.0,29.43,NE,36,18.0,21.0,58,0.00,CLR,,0.00,WeatherDisplay:10.37,2013-06-23 00:45:00,
2013-06-23 13:00:00,-5.0,-15.7,29.43,NE,38,18.0,18.0,59,0.00,CLR,,0.00,WeatherDisplay:10.37,2013-06-23 01:00:00,
2013-06-23 13:15:00,-5.1,-15.4,29.43,NE,35,21.0,21.0,60,0.00,CLR,,0.00,WeatherDisplay:10.37,2013-06-23 01:15:00,
2013-06-23 13:30:00,-4.8,-15.2,29.43,NNE,32,21.0,21.0,60,0.00,CLR,,0.00,WeatherDisplay:10.37,2013-06-23 01:30:00,
2013-06-23 13:45:00,-4.7,-15.4,29.43,NE,35,17.0,21.0,59,0.00,CLR,,0.00,WeatherDisplay:10.37,2013-06-23 01:45:00,
2013-06-23 14:00:00,-4.9,-15.6,29.44,NE,34,15.0,17.0,59,0.00,CLR,,0.00,WeatherDisplay:10.37,2013-06-23 02:00:00,
2013-06-23 14:15:00,-5.1,-16.5,29.44,NE,37,12.0,15.0,57,0.00,CLR,,0.00,WeatherDisplay:10.37,2013-06-23 02:15:00,
2013-06-23 14:30:00,-5.0,-16.4,29.44,NNE,24,14.0,14.0,57,0.00,CLR,,0.00,WeatherDisplay:10.37,2013-06-23 02:30:00,
2013-06-23 14:45:00,-4.3,-16.4,29.43,NNE,29,10.0,14.0,55,0.00,CLR,,0.00,WeatherDisplay:10.37,2013-06-23 02:45:00,
2013-06-23 15:00:00,-4.3,-16.1,29.44,NNE,16,12.0,12.0,56,0.00,CLR,,0.00,WeatherDisplay:10.37,2013-06-23 03:00:00,
2013-06-23 15:15:00,-1.8,-16.3,29.45,NNE,30,9.0,12.0,49,0.00,CLR,,0.00,WeatherDisplay:10.37,2013-06-23 03:15:00,
2013-06-23 15:30:00,-1.8,-17.1,29.45,NE,39,7.0,9.0,47,0.00,CLR,,0.00,WeatherDisplay:10.37,2013-06-23 03:30:00,
2013-06-23 15:45:00,-2.5,-18.6,29.46,NNE,33,9.0,9.0,45,0.00,CLR,,0.00,WeatherDisplay:10.37,2013-06-23 03:45:00,
2013-06-23 16:00:00,-4.4,-18.3,29.46,NE,39,9.0,9.0,50,0.00,CLR,,0.00,WeatherDisplay:10.37,2013-06-23 04:00:00,
2013-06-23 16:15:00,-2.6,-18.3,29.47,NE,51,10.0,10.0,46,0.00,CLR,,0.00,WeatherDisplay:10.37,2013-06-23 04:15:00,
2013-06-23 16:30:00,-2.1,-17.4,29.48,ENE,61,10.0,10.0,47,0.00,CLR,,0.00,WeatherDisplay:10.37,2013-06-23 04:30:00,
2013-06-23 16:45:00,-3.9,-17.1,29.49,ESE,107,16.0,16.0,52,0.00,CLR,,0.00,WeatherDisplay:10.37,2013-06-23 04:45:00,
2013-06-23 17:00:00,-5.7,-18.4,29.48,ENE,76,12.0,16.0,53,0.00,CLR,,0.00,WeatherDisplay:10.37,2013-06-23 05:00:00,
2013-06-23 17:15:00,-4.1,-18.4,29.48,NE,38,7.0,12.0,49,0.00,CLR,,0.00,WeatherDisplay:10.37,2013-06-23 05:15:00,
2013-06-23 17:30:00,-3.9,-18.7,29.49,NE,56,6.0,7.0,48,0.00,CLR,,0.00,WeatherDisplay:10.37,2013-06-23 05:30:00,
2013-06-23 17:45:00,-4.6,-18.6,29.49,SSE,147,10.0,10.0,50,0.00,CLR,,0.00,WeatherDisplay:10.37,2013-06-23 05:45:00,
2013-06-23 18:00:00,-4.7,-17.1,29.49,SSE,164,17.0,17.0,54,0.00,CLR,,0.00,WeatherDisplay:10.37,2013-06-23 06:00:00,
2013-06-23 18:15:00,-5.6,-18.3,29.51,ENE,67,3.0,17.0,53,0.00,CLR,,0.00,WeatherDisplay:10.37,2013-06-23 06:15:00,
2013-06-23 18:30:00,-5.2,-18.3,29.52,ESE,114,1.0,3.0,52,0.00,CLR,,0.00,WeatherDisplay:10.37,2013-06-23 06:30:00,
2013-06-23 18:45:00,-4.8,-18.8,29.53,NNE,25,9.0,9.0,50,0.00,CLR,,0.00,WeatherDisplay:10.37,2013-06-23 06:45:00,
2013-06-23 19:00:00,-5.2,-18.8,29.54,NNE,21,9.0,9.0,51,0.00,CLR,,0.00,WeatherDisplay:10.37,2013-06-23 07:00:00,
2013-06-23 19:15:00,-6.9,-18.5,29.55,NNE,27,14.0,14.0,56,0.00,CLR,,0.00,WeatherDisplay:10.37,2013-06-23 07:15:00,
2013-06-23 19:30:00,-6.4,-18.1,29.55,NNE,24,14.0,14.0,56,0.00,CLR,,0.00,WeatherDisplay:10.37,2013-06-23 07:30:00,
2013-06-23 19:45:00,-5.1,-19.0,29.56,East,81,8.0,14.0,50,0.00,CLR,,0.00,WeatherDisplay:10.37,2013-06-23 07:45:00,
2013-06-23 20:00:00,-5.3,-18.8,29.56,ENE,69,13.0,13.0,51,0.00,CLR,,0.00,WeatherDisplay:10.37,2013-06-23 08:00:00,
2013-06-23 20:15:00,-5.4,-19.6,29.56,ENE,73,9.0,13.0,49,0.00,CLR,,0.00,WeatherDisplay:10.37,2013-06-23 08:15:00,
2013-06-23 20:30:00,-4.8,-19.9,29.56,East,96,10.0,10.0,47,0.00,CLR,,0.00,WeatherDisplay:10.37,2013-06-23 08:30:00,
2013-06-23 20:45:00,-6.0,-18.8,29.55,ENE,67,7.0,10.0,53,0.00,CLR,,0.00,WeatherDisplay:10.37,2013-06-23 08:45:00,
2013-06-23 21:00:00,-6.9,-19.2,29.55,NNE,15,9.0,9.0,54,0.00,CLR,,0.00,WeatherDisplay:10.37,2013-06-23 09:00:00,
2013-06-23 21:15:00,-9.8,-17.5,29.57,NNE,24,29.0,29.0,68,0.00,,,0.00,WeatherDisplay:10.37,2013-06-23 09:15:00,
2013-06-23 21:30:00,-10.7,-17.8,29.59,NE,36,20.0,29.0,70,0.00,CLR,,0.00,WeatherDisplay:10.37,2013-06-23 09:30:00,
2013-06-23 21:45:00,-11.7,-18.8,29.60,NE,34,20.0,20.0,70,0.00,CLR,,0.00,WeatherDisplay:10.37,2013-06-23 09:45:00,
2013-06-23 22:00:00,-12.2,-19.2,29.61,NE,38,18.0,20.0,70,0.00,CLR,,0.00,WeatherDisplay:10.37,2013-06-23 10:00:00,
2013-06-23 22:15:00,-12.6,-19.6,29.62,NE,36,18.0,18.0,70,0.00,CLR,,0.00,WeatherDisplay:10.37,2013-06-23 10:15:00,
2013-06-23 22:30:00,-10.3,-20.1,29.62,NE,40,15.0,18.0,61,0.00,CLR,,0.00,WeatherDisplay:10.37,2013-06-23 10:30:00,
2013-06-23 22:45:00,-11.1,-21.8,29.63,NE,54,15.0,15.0,58,0.00,CLR,,0.00,WeatherDisplay:10.37,2013-06-23 10:45:00,
2013-06-23 23:00:00,-12.4,-22.1,29.65,NE,46,15.0,15.0,61,0.00,CLR,,0.00,WeatherDisplay:10.37,2013-06-23 11:00:00,
2013-06-23 23:15:00,-12.3,-21.6,29.65,ENE,68,15.0,15.0,62,0.00,CLR,,0.00,WeatherDisplay:10.37,2013-06-23 11:15:00,
2013-06-23 23:30:00,-11.3,-20.8,29.65,East,93,12.0,15.0,62,0.00,CLR,,0.00,WeatherDisplay:10.37,2013-06-23 11:30:00,
2013-06-23 23:45:00,-10.8,-17.8,29.65,SE,143,28.0,28.0,70,0.00,,,0.00,WeatherDisplay:10.37,2013-06-23 11:45:00,